createdAt,value
2023-08-29T00:00:40.757Z,101325.09
2023-08-29T00:05:42.263Z,101304.84
2023-08-29T00:10:44.581Z,101304.66
2023-08-29T00:15:46.111Z,101297.81
2023-08-29T00:20:47.601Z,101287.69
2023-08-29T00:25:51.341Z,101297.31
2023-08-29T00:30:54.357Z,101300.06
2023-08-29T00:35:55.873Z,101289.25
2023-08-29T00:40:57.409Z,101287.38
2023-08-29T00:46:00.124Z,101279.69
2023-08-29T00:51:01.754Z,101289.09
2023-08-29T00:56:05.531Z,101292.22
2023-08-29T01:01:07.111Z,101280.41
2023-08-29T01:06:08.616Z,101274.59
2023-08-29T01:12:07.412Z,101272.72
2023-08-29T01:17:17.735Z,101269.16
2023-08-29T01:22:43.288Z,101267.13
2023-08-29T01:27:46.497Z,101255.66
2023-08-29T01:32:48.260Z,101253.63
2023-08-29T01:37:49.849Z,101256.53
2023-08-29T01:42:51.346Z,101251.41
2023-08-29T01:47:52.862Z,101253.81
2023-08-29T01:52:54.631Z,101240.78
2023-08-29T01:58:03.636Z,101245.91
2023-08-29T02:03:05.720Z,101252.63
2023-08-29T02:08:07.490Z,101259.63
2023-08-29T02:13:10.733Z,101253.31
2023-08-29T02:18:12.230Z,101254.84
2023-08-29T02:23:13.708Z,101257.25
2023-08-29T02:28:15.464Z,101258.81
2023-08-29T02:33:16.977Z,101258.66
2023-08-29T02:38:18.463Z,101252.31
2023-08-29T02:43:20.006Z,101260.53
2023-08-29T02:48:21.669Z,101275.06
2023-08-29T02:53:23.283Z,101262.56
2023-08-29T02:58:24.860Z,101267.72
2023-08-29T03:03:27.608Z,101269.22
2023-08-29T03:08:29.320Z,101267.88
2023-08-29T03:13:32.031Z,101261.38
2023-08-29T03:18:33.526Z,101268.38
2023-08-29T03:23:36.141Z,101271.28
2023-08-29T03:28:38.438Z,101271.63
2023-08-29T03:33:41.416Z,101272.84
2023-08-29T03:38:43.784Z,101291.31
2023-08-29T03:43:45.359Z,101296.75
2023-08-29T03:48:46.795Z,101301.91
2023-08-29T03:53:48.230Z,101296.38
2023-08-29T03:58:50.366Z,101291.72
2023-08-29T04:03:54.236Z,101296.50
2023-08-29T04:08:55.969Z,101290.66
2023-08-29T04:13:57.617Z,101289.09
2023-08-29T04:18:59.127Z,101290.13
2023-08-29T04:24:00.990Z,101279.31
2023-08-29T04:29:02.597Z,101273.28
2023-08-29T04:34:04.168Z,101262.13
2023-08-29T04:39:07.326Z,101259.75
2023-08-29T04:44:09.372Z,101257.34
2023-08-29T04:49:10.915Z,101248.56
2023-08-29T04:54:12.448Z,101244.41
2023-08-29T04:59:14.006Z,101229.13
2023-08-29T05:04:15.470Z,101221.91
2023-08-29T05:09:19.008Z,101220.91
2023-08-29T05:14:22.077Z,101212.84
2023-08-29T05:19:23.622Z,101207.53
2023-08-29T05:24:25.091Z,101205.44
2023-08-29T05:29:26.667Z,101204.75
2023-08-29T05:34:28.196Z,101203.81
2023-08-29T05:39:29.656Z,101204.44
2023-08-29T05:44:31.158Z,101200.97
2023-08-29T05:49:32.756Z,101205.16
2023-08-29T05:54:37.554Z,101197.88
2023-08-29T05:59:39.070Z,101185.78
2023-08-29T06:04:40.595Z,101186.88
2023-08-29T06:09:42.482Z,101201.31
2023-08-29T06:14:43.950Z,101197.91
2023-08-29T06:19:45.563Z,101198.97
2023-08-29T06:24:50.327Z,101202.97
2023-08-29T06:29:51.808Z,101202.97
2023-08-29T06:34:53.491Z,101198.59
2023-08-29T06:39:55.010Z,101200.56
2023-08-29T06:44:58.854Z,101200.19
2023-08-29T06:50:00.954Z,101199.66
2023-08-29T06:55:04.103Z,101198.19
2023-08-29T07:00:06.084Z,101206.69
2023-08-29T07:05:08.201Z,101200.66
2023-08-29T07:10:10.335Z,101202.81
2023-08-29T07:15:11.881Z,101201.97
2023-08-29T07:20:13.357Z,101203.66
2023-08-29T07:25:15.997Z,101206.88
2023-08-29T07:30:17.596Z,101206.56
2023-08-29T07:35:19.123Z,101205.16
2023-08-29T07:40:20.708Z,101207.91
2023-08-29T07:45:22.323Z,101214.84
2023-08-29T07:50:24.066Z,101209.75
2023-08-29T07:55:25.623Z,101212.38
2023-08-29T08:00:29.370Z,101207.63
2023-08-29T08:05:31.331Z,101201.72
2023-08-29T08:10:34.858Z,101204.31
2023-08-29T08:15:36.785Z,101209.25
2023-08-29T08:20:38.408Z,101197.00
2023-08-29T08:25:39.997Z,101188.69
2023-08-29T08:30:41.605Z,101185.09
2023-08-29T08:35:55.715Z,101192.50
2023-08-29T08:40:59.182Z,101174.81
2023-08-29T08:46:01.098Z,101158.88
2023-08-29T08:51:05.304Z,101162.88
2023-08-29T08:56:09.426Z,101160.06
2023-08-29T09:01:11.084Z,101162.50
2023-08-29T09:06:15.591Z,101164.94
2023-08-29T09:11:21.146Z,101169.97
2023-08-29T09:16:22.977Z,101175.47
2023-08-29T09:21:25.832Z,101167.09
2023-08-29T09:26:35.988Z,101174.41
2023-08-29T09:31:37.632Z,101173.25
2023-08-29T09:36:39.770Z,101174.34
2023-08-29T09:41:41.496Z,101177.88
2023-08-29T09:46:45.294Z,101174.63
2023-08-29T09:51:46.877Z,101175.56
2023-08-29T09:56:48.756Z,101169.31
2023-08-29T10:01:52.924Z,101177.38
2023-08-29T10:06:58.061Z,101155.09
2023-08-29T10:12:00.075Z,101172.31
2023-08-29T10:17:04.474Z,101167.25
2023-08-29T10:22:11.981Z,101150.47
2023-08-29T10:27:13.423Z,101146.63
2023-08-29T10:32:16.686Z,101148.19
2023-08-29T10:37:19.741Z,101140.28
2023-08-29T10:42:21.325Z,101141.78
2023-08-29T10:47:32.434Z,101145.34
2023-08-29T10:52:42.745Z,101146.59
2023-08-29T10:57:44.380Z,101137.78
2023-08-29T11:02:46.076Z,101144.09
2023-08-29T11:07:48.096Z,101140.56
2023-08-29T11:13:09.389Z,101140.06
2023-08-29T11:18:27.777Z,101126.03
2023-08-29T11:23:34.644Z,101124.59
2023-08-29T11:28:43.825Z,101112.63
2023-08-29T11:33:50.672Z,101107.47
2023-08-29T11:38:52.884Z,101109.50
2023-08-29T11:44:30.875Z,101115.94
2023-08-29T11:49:17.438Z,101112.09
2023-08-29T11:54:48.543Z,101106.69
2023-08-29T11:59:52.924Z,101105.50
2023-08-29T12:04:59.165Z,101110.59
2023-08-29T12:10:28.288Z,101106.22
2023-08-29T12:15:43.764Z,101121.63
2023-08-29T12:20:46.121Z,101112.44
2023-08-29T12:25:47.662Z,101107.31
2023-08-29T12:30:49.361Z,101104.09
2023-08-29T12:35:51.808Z,101102.19
2023-08-29T12:40:54.241Z,101093.47
2023-08-29T12:46:00.351Z,101091.28
2023-08-29T12:51:03.499Z,101088.53
2023-08-29T12:56:05.123Z,101084.09
2023-08-29T13:01:07.300Z,101086.63
2023-08-29T13:06:09.065Z,101075.72
2023-08-29T13:11:10.553Z,101077.94
2023-08-29T13:16:12.233Z,101074.16
2023-08-29T13:21:13.776Z,101062.28
2023-08-29T13:26:15.268Z,101072.34
2023-08-29T13:31:18.061Z,101069.94
2023-08-29T13:36:19.797Z,101067.66
2023-08-29T13:41:21.282Z,101066.06
2023-08-29T13:46:22.878Z,101064.28
2023-08-29T13:51:24.349Z,101051.41
2023-08-29T13:56:25.865Z,101048.47
2023-08-29T14:01:27.327Z,101046.00
2023-08-29T14:06:28.998Z,101048.63
2023-08-29T14:11:30.458Z,101040.63
2023-08-29T14:16:32.026Z,101041.66
2023-08-29T14:21:33.541Z,101038.91
2023-08-29T14:26:35.022Z,101032.09
2023-08-29T14:31:37.055Z,101025.00
2023-08-29T14:36:38.541Z,101022.41
2023-08-29T14:41:43.280Z,101028.13
2023-08-29T14:46:44.882Z,101024.09
2023-08-29T14:51:47.303Z,101014.13
2023-08-29T14:56:50.098Z,101013.81
2023-08-29T15:01:52.167Z,100999.97
2023-08-29T15:06:53.727Z,101006.16
2023-08-29T15:11:55.212Z,101004.84
2023-08-29T15:16:56.737Z,100997.59
2023-08-29T15:21:58.224Z,101001.81
2023-08-29T15:26:59.733Z,100994.56
2023-08-29T15:32:01.264Z,101007.69
2023-08-29T15:37:05.561Z,101006.78
2023-08-29T15:42:07.393Z,101006.56
2023-08-29T15:47:09.307Z,101008.69
2023-08-29T15:52:10.887Z,101003.56
2023-08-29T15:57:14.771Z,101001.00
2023-08-29T16:02:16.275Z,100992.25
2023-08-29T16:07:17.708Z,100987.16
2023-08-29T16:12:19.205Z,100988.66
2023-08-29T16:17:20.806Z,100985.47
2023-08-29T16:22:22.274Z,100992.50
2023-08-29T16:27:23.919Z,101003.41
2023-08-29T16:32:25.437Z,101001.72
2023-08-29T16:37:27.001Z,101006.66
2023-08-29T16:42:28.998Z,101012.00
2023-08-29T16:47:32.091Z,101023.50
2023-08-29T16:52:33.668Z,101010.56
2023-08-29T16:57:35.164Z,101006.72
2023-08-29T17:02:37.706Z,101009.53
2023-08-29T17:07:39.535Z,101008.09
2023-08-29T17:12:41.071Z,101010.84
2023-08-29T17:17:42.899Z,101010.28
2023-08-29T17:22:44.942Z,101019.25
2023-08-29T17:27:46.573Z,101015.66
2023-08-29T17:32:48.181Z,101012.06
2023-08-29T17:37:49.825Z,101011.66
2023-08-29T17:42:51.522Z,101005.25
2023-08-29T17:47:53.908Z,101001.03
2023-08-29T17:52:55.417Z,100999.97
2023-08-29T17:57:56.934Z,100996.38
2023-08-29T18:02:58.475Z,100999.97
2023-08-29T18:08:00.053Z,100992.72
2023-08-29T18:13:01.496Z,100994.19
2023-08-29T18:18:25.818Z,101002.84
2023-08-29T18:23:28.472Z,100996.84
2023-08-29T18:28:30.481Z,100995.97
2023-08-29T18:33:32.292Z,100987.84
2023-08-29T18:38:35.729Z,100995.88
2023-08-29T18:43:37.182Z,100996.44
2023-08-29T18:48:38.646Z,100995.75
2023-08-29T18:53:40.617Z,100985.31
2023-08-29T18:58:42.167Z,100989.28
2023-08-29T19:03:44.316Z,100995.78
2023-08-29T19:08:45.795Z,100992.03
2023-08-29T19:13:47.233Z,100986.84
2023-08-29T19:18:48.814Z,100993.53
2023-08-29T19:23:50.662Z,100989.06
2023-08-29T19:28:52.188Z,100977.31
2023-08-29T19:33:53.700Z,100988.47
2023-08-29T19:39:04.949Z,100985.66
2023-08-29T19:44:09.856Z,100980.03
2023-08-29T19:49:11.621Z,100982.13
2023-08-29T19:54:13.225Z,100967.31
2023-08-29T19:59:14.842Z,100962.69
2023-08-29T20:04:16.375Z,100967.00
2023-08-29T20:09:17.933Z,100961.75
2023-08-29T20:14:19.454Z,100959.91
2023-08-29T20:19:23.710Z,100960.81
2023-08-29T20:24:25.152Z,100959.16
2023-08-29T20:29:26.622Z,100952.88
2023-08-29T20:34:28.119Z,100947.16
2023-08-29T20:39:29.616Z,100953.72
2023-08-29T20:44:31.900Z,100951.13
2023-08-29T20:49:33.377Z,100951.91
2023-08-29T20:54:38.210Z,100950.94
2023-08-29T20:59:40.531Z,100954.63
2023-08-29T21:04:42.098Z,100947.41
2023-08-29T21:09:43.599Z,100941.84
2023-08-29T21:14:49.695Z,100934.78
2023-08-29T21:19:51.243Z,100939.38
2023-08-29T21:24:52.894Z,100932.81
2023-08-29T21:29:54.395Z,100930.97
2023-08-29T21:34:56.039Z,100920.44
2023-08-29T21:39:57.558Z,100914.34
2023-08-29T21:44:59.037Z,100918.41
2023-08-29T21:50:00.534Z,100908.72
2023-08-29T21:55:02.062Z,100908.91
2023-08-29T22:00:08.242Z,100900.66
2023-08-29T22:05:10.190Z,100883.78
2023-08-29T22:10:13.554Z,100882.59
2023-08-29T22:15:15.402Z,100876.50
2023-08-29T22:20:17.013Z,100869.97
2023-08-29T22:25:18.713Z,100872.94
2023-08-29T22:30:20.214Z,100869.97
2023-08-29T22:35:21.900Z,100868.72
2023-08-29T22:40:23.387Z,100866.34
2023-08-29T22:45:24.905Z,100857.59
2023-08-29T22:50:26.341Z,100852.59
2023-08-29T22:55:28.008Z,100843.00
2023-08-29T23:00:29.530Z,100842.72
2023-08-29T23:05:31.120Z,100830.50
2023-08-29T23:10:32.867Z,100823.84
2023-08-29T23:15:35.165Z,100818.09
2023-08-29T23:20:36.679Z,100808.28
2023-08-29T23:25:38.142Z,100808.03
2023-08-29T23:30:39.604Z,100803.03
2023-08-29T23:35:41.043Z,100803.44
2023-08-29T23:40:48.033Z,100809.09
2023-08-29T23:45:49.886Z,100792.81
2023-08-29T23:50:51.357Z,100791.13
2023-08-29T23:55:52.811Z,100784.13
